Time;durP1;ratioP1;P1;durP2;ratioP2;P2;SDS_P1;SDS_P2;PMS_P1;PMS_P2;Temp;Humidity;BMP_temperature;BMP_pressure;BME280_temperature;BME280_humidity;BME280_pressure;Samples;Min_cycle;Max_cycle;Signal;HPM_P1;HPM_P2
2021/10/11 00:00:36;;;;;;;13.60;12.23;;;4.00;99.90;;;4.85;83.29;98861.88;5136389;28;20520;-55
2021/10/11 00:03:10;;;;;;;12.10;11.00;;;4.00;99.90;;;4.82;83.60;98863.22;5148166;28;20222;-55
2021/10/11 00:05:43;;;;;;;12.70;11.50;;;4.00;99.90;;;4.79;83.31;98862.94;5142566;28;20210;-56
2021/10/11 00:08:17;;;;;;;13.30;12.20;;;4.00;99.90;;;4.74;83.67;98862.47;5140615;28;20218;-56
2021/10/11 00:10:51;;;;;;;12.33;11.20;;;4.00;99.90;;;4.68;84.71;98861.91;5141457;28;20615;-54
2021/10/11 00:13:25;;;;;;;13.60;12.40;;;3.90;99.90;;;4.69;84.49;98861.16;5144363;28;20201;-54
2021/10/11 00:15:58;;;;;;;13.80;12.50;;;3.90;99.90;;;4.61;85.15;98867.13;5142174;28;20213;-54
2021/10/11 00:18:31;;;;;;;13.53;12.10;;;3.90;99.90;;;4.58;84.63;98866.81;5143632;28;20224;-53
2021/10/11 00:21:04;;;;;;;12.17;11.07;;;3.80;99.90;;;4.60;84.31;98855.22;5143678;28;20211;-56
2021/10/11 00:23:38;;;;;;;13.00;11.83;;;3.80;99.90;;;4.61;84.67;98854.47;5142332;28;20217;-52
2021/10/11 00:26:12;;;;;;;12.90;11.80;;;3.80;99.90;;;4.60;85.03;98856.09;5140622;28;20218;-53
2021/10/11 00:28:45;;;;;;;16.07;14.50;;;3.80;99.90;;;4.58;84.24;98852.53;5131686;28;20226;-54
2021/10/11 00:31:18;;;;;;;13.27;12.07;;;3.70;99.90;;;4.56;83.63;98853.13;5141244;28;20203;-56
2021/10/11 00:33:51;;;;;;;19.97;17.87;;;3.60;99.90;;;4.53;83.56;98847.78;5137030;28;20198;-55
2021/10/11 00:36:25;;;;;;;17.93;16.20;;;3.50;99.90;;;4.45;84.08;98859.69;5140232;28;20561;-55
2021/10/11 00:38:59;;;;;;;14.10;12.70;;;3.50;99.90;;;4.35;84.46;98857.91;5135403;28;20230;-54
2021/10/11 00:41:32;;;;;;;13.57;12.27;;;3.50;99.90;;;4.43;84.45;98864.59;5138717;28;20574;-53
2021/10/11 00:44:06;;;;;;;13.73;12.53;;;3.60;99.90;;;4.51;84.80;98858.63;5141215;28;20294;-57
2021/10/11 00:46:39;;;;;;;13.27;11.93;;;3.60;99.90;;;4.49;84.97;98869.34;5140430;28;20653;-53
2021/10/11 00:49:12;;;;;;;15.73;14.33;;;3.60;99.90;;;4.43;84.27;98871.28;5138174;28;20262;-54
2021/10/11 00:51:45;;;;;;;14.37;13.17;;;3.50;99.90;;;4.47;83.85;98873.41;5139340;28;20722;-55
2021/10/11 00:54:20;;;;;;;13.50;12.27;;;3.50;99.90;;;4.36;83.62;98869.81;5135097;28;20294;-57
2021/10/11 00:56:53;;;;;;;13.30;12.07;;;3.50;99.90;;;4.40;83.10;98871.88;5143605;28;20298;-54
2021/10/11 00:59:26;;;;;;;12.67;11.47;;;3.50;99.90;;;4.36;83.17;98859.69;5138120;28;20224;-52
2021/10/11 01:02:01;;;;;;;12.33;11.17;;;3.40;99.90;;;4.34;83.56;98861.19;5143459;28;20267;-53
2021/10/11 01:04:34;;;;;;;12.67;11.57;;;3.40;99.90;;;4.35;83.36;98857.91;5137713;28;20636;-56
2021/10/11 01:07:07;;;;;;;13.07;11.80;;;3.40;99.90;;;4.31;83.66;98853.28;5140483;28;20196;-54
2021/10/11 01:09:41;;;;;;;12.60;11.40;;;3.40;99.90;;;4.22;83.96;98852.41;5138355;28;20708;-55
2021/10/11 01:12:15;;;;;;;13.57;12.27;;;3.30;99.90;;;4.22;84.08;98854.94;5136380;28;20295;-51
2021/10/11 01:14:48;;;;;;;13.07;11.87;;;3.40;99.90;;;4.22;84.58;98844.81;5140332;28;20333;-54
2021/10/11 01:17:21;;;;;;;13.33;12.03;;;3.40;99.90;;;4.25;84.76;98833.34;5135468;28;20543;-52
2021/10/11 01:19:57;;;;;;;13.63;12.27;;;3.40;99.90;;;4.17;84.72;98843.47;5130218;28;20317;-53
2021/10/11 01:22:36;;;;;;;12.53;11.23;;;3.40;99.90;;;4.16;85.02;98834.09;5136576;28;20667;-54
2021/10/11 01:25:12;;;;;;;12.97;11.67;;;3.30;99.90;;;4.12;84.79;98832.91;5144393;28;20242;-53
2021/10/11 01:27:46;;;;;;;13.10;11.73;;;3.30;99.90;;;4.17;84.77;98826.63;5129550;28;20205;-55
2021/10/11 01:30:19;;;;;;;13.33;12.13;;;3.30;99.90;;;4.19;83.81;98831.88;5136900;28;20231;-56
2021/10/11 01:32:53;;;;;;;11.93;10.83;;;3.30;99.90;;;4.09;84.03;98839.28;5135868;28;20239;-52
2021/10/11 01:35:27;;;;;;;12.47;11.17;;;3.20;99.90;;;4.07;84.07;98840.03;5131418;28;20205;-54
2021/10/11 01:38:00;;;;;;;11.97;10.83;;;3.20;99.90;;;3.99;83.87;98830.81;5130337;28;20208;-53
2021/10/11 01:40:33;;;;;;;13.07;11.83;;;3.10;99.90;;;3.92;84.23;98830.03;5137153;28;20207;-54
2021/10/11 01:43:07;;;;;;;12.13;11.03;;;3.10;99.90;;;3.88;83.36;98835.56;5128502;28;20289;-55
2021/10/11 01:45:45;;;;;;;12.07;10.97;;;2.90;99.90;;;3.78;83.44;98832.13;5141307;28;20628;-52
2021/10/11 01:48:19;;;;;;;12.10;10.90;;;2.90;99.90;;;3.78;83.89;98836.31;5131399;28;20227;-56
2021/10/11 01:50:53;;;;;;;13.10;11.90;;;2.90;99.90;;;3.77;84.33;98834.50;5130031;28;20221;-53
2021/10/11 01:53:26;;;;;;;12.70;11.47;;;3.00;99.90;;;3.77;84.29;98821.84;5133719;28;20198;-55
2021/10/11 01:55:59;;;;;;;12.13;11.03;;;3.00;99.90;;;3.77;85.46;98822.75;5130980;28;20303;-55
2021/10/11 01:58:34;;;;;;;13.93;12.37;;;3.10;99.90;;;3.86;85.57;98827.81;5136296;28;20281;-55
2021/10/11 02:01:09;;;;;;;13.50;12.17;;;3.10;99.90;;;3.86;86.52;98826.91;5135503;28;20214;-53
2021/10/11 02:03:42;;;;;;;13.33;12.00;;;3.20;99.90;;;3.87;86.81;98829.63;5134167;28;20221;-57
2021/10/11 02:06:17;;;;;;;13.80;12.60;;;3.20;99.90;;;3.93;85.93;98830.22;5131590;28;20200;-56
2021/10/11 02:08:50;;;;;;;13.80;12.40;;;3.10;99.90;;;3.96;85.35;98825.44;5141647;28;20317;-55
2021/10/11 02:11:23;;;;;;;11.77;10.77;;;3.10;99.90;;;3.97;84.72;98832.28;5143138;28;20211;-54
2021/10/11 02:13:56;;;;;;;13.03;11.60;;;3.00;99.90;;;3.94;84.78;98824.41;5142973;28;20210;-54
2021/10/11 02:16:29;;;;;;;12.80;11.60;;;3.00;99.90;;;3.95;84.14;98825.28;5145592;28;20195;-55
2021/10/11 02:19:02;;;;;;;12.20;11.00;;;3.00;99.90;;;3.94;83.16;98820.97;5142183;28;20310;-54
2021/10/11 02:21:38;;;;;;;12.73;11.57;;;3.00;99.90;;;3.87;83.68;98822.03;5136210;28;20723;-55
2021/10/11 02:24:11;;;;;;;13.00;11.70;;;2.90;99.90;;;3.79;83.50;98810.25;5138803;28;20601;-55
2021/10/11 02:26:44;;;;;;;12.27;11.17;;;2.80;99.90;;;3.75;83.52;98808.16;5140507;28;20201;-57
2021/10/11 02:29:17;;;;;;;12.63;11.53;;;2.90;99.90;;;3.69;83.73;98807.56;5139676;28;20253;-54
2021/10/11 02:31:51;;;;;;;11.60;10.50;;;2.80;99.90;;;3.67;84.52;98804.00;5145643;28;20206;-57
2021/10/11 02:34:24;;;;;;;12.23;11.13;;;2.80;99.90;;;3.58;83.84;98799.81;5136725;28;20225;-53
2021/10/11 02:36:58;;;;;;;11.97;10.87;;;2.80;99.90;;;3.59;84.42;98801.59;5139836;28;20207;-54
2021/10/11 02:39:32;;;;;;;12.10;11.00;;;2.70;99.90;;;3.50;83.88;98800.69;5139707;28;20566;-54
2021/10/11 02:42:05;;;;;;;12.37;11.17;;;2.60;99.90;;;3.55;84.10;98807.09;5140126;28;20216;-58
2021/10/11 02:44:38;;;;;;;11.83;10.83;;;2.60;99.90;;;3.47;83.33;98800.41;5142808;28;20600;-54
2021/10/11 02:47:11;;;;;;;12.27;11.17;;;2.50;99.90;;;3.51;83.32;98794.88;5140303;28;20518;-55
2021/10/11 02:49:44;;;;;;;12.33;11.33;;;2.50;99.90;;;3.44;84.46;98786.56;5189979;22;20221;-63
2021/10/11 02:52:18;;;;;;;12.40;11.17;;;2.50;99.90;;;3.40;84.22;98792.94;5222769;28;20233;-62
2021/10/11 02:54:51;;;;;;;12.10;10.90;;;2.60;99.90;;;3.38;84.86;98789.38;5223398;28;20192;-63
2021/10/11 02:57:24;;;;;;;12.33;11.23;;;2.60;99.90;;;3.38;84.55;98789.38;5223224;28;20206;-62
2021/10/11 02:59:57;;;;;;;12.30;11.00;;;2.60;99.90;;;3.35;85.36;98796.66;5219899;28;20224;-63
2021/10/11 03:02:30;;;;;;;12.67;11.33;;;2.60;99.90;;;3.38;85.12;98802.00;5215916;28;20238;-63
2021/10/11 03:05:04;;;;;;;13.40;12.20;;;2.60;99.90;;;3.38;85.38;98799.47;5217045;28;20217;-63
2021/10/11 03:07:38;;;;;;;12.90;11.60;;;2.70;99.90;;;3.38;85.63;98812.13;5215956;28;20673;-62
2021/10/11 03:10:11;;;;;;;14.67;13.13;;;2.70;99.90;;;3.33;86.05;98808.22;5216385;28;20248;-62
2021/10/11 03:12:44;;;;;;;14.10;12.80;;;2.60;99.90;;;3.39;86.65;98813.91;5215677;28;20198;-63
2021/10/11 03:15:17;;;;;;;13.23;12.03;;;2.70;99.90;;;3.39;85.67;98802.16;5219649;28;20560;-63
2021/10/11 03:17:50;;;;;;;12.67;11.37;;;2.60;99.90;;;3.35;85.24;98804.22;5216438;28;20209;-63
2021/10/11 03:20:23;;;;;;;12.80;11.60;;;2.60;99.90;;;3.35;85.25;98794.13;5217550;28;20699;-61
2021/10/11 03:22:58;;;;;;;14.53;13.20;;;2.50;99.90;;;3.26;85.47;98800.75;5212489;28;20204;-62
2021/10/11 03:25:31;;;;;;;13.87;12.47;;;2.50;99.90;;;3.31;85.65;98790.38;5218943;28;20192;-63
2021/10/11 03:28:05;;;;;;;14.23;12.93;;;2.50;99.90;;;3.25;85.49;98796.47;5216635;28;20200;-62
2021/10/11 03:30:38;;;;;;;12.10;11.03;;;2.50;99.90;;;3.27;85.26;98792.47;5214870;28;20300;-63
2021/10/11 03:33:11;;;;;;;12.20;11.03;;;2.50;99.90;;;3.28;85.75;98796.75;5218223;28;20202;-63
2021/10/11 03:35:44;;;;;;;12.57;11.40;;;2.40;99.90;;;3.31;85.45;98802.13;5217173;28;20196;-62
2021/10/11 03:38:19;;;;;;;12.93;11.80;;;2.40;99.90;;;3.28;84.64;98807.75;5219153;28;20211;-61
2021/10/11 03:40:52;;;;;;;12.87;11.63;;;2.40;99.90;;;3.33;83.83;98805.72;5212996;28;20652;-62
2021/10/11 03:43:25;;;;;;;13.07;11.70;;;2.40;99.90;;;3.24;83.60;98809.84;5217273;28;20318;-63
2021/10/11 03:45:58;;;;;;;12.40;11.20;;;2.30;99.90;;;3.09;83.34;98797.47;5215829;28;20205;-63
2021/10/11 03:48:31;;;;;;;12.17;10.93;;;2.20;99.90;;;3.04;83.17;98796.09;5210984;28;20289;-62
2021/10/11 03:51:04;;;;;;;12.53;11.33;;;2.20;99.90;;;2.98;84.60;98795.47;5213697;28;20215;-63
2021/10/11 03:53:38;;;;;;;12.20;11.00;;;2.20;99.90;;;3.02;84.41;98801.72;5230627;28;20200;-63
2021/10/11 03:56:11;;;;;;;13.03;11.70;;;2.30;99.90;;;3.03;85.36;98794.28;5227373;28;20657;-62
2021/10/11 03:58:44;;;;;;;13.73;12.43;;;2.30;99.90;;;3.08;84.33;98788.06;5226623;28;20641;-63
2021/10/11 04:01:17;;;;;;;14.20;12.77;;;2.30;99.90;;;2.99;85.06;98789.69;5228198;28;20196;-62
2021/10/11 04:03:52;;;;;;;13.67;12.30;;;2.30;99.90;;;2.95;85.69;98774.97;5230714;28;20224;-64
2021/10/11 04:06:25;;;;;;;14.43;12.93;;;2.20;99.90;;;3.01;85.23;98780.63;5235357;28;20226;-64
2021/10/11 04:09:00;;;;;;;15.40;13.93;;;2.30;99.90;;;2.95;86.23;98774.97;5226299;28;20223;-62
2021/10/11 04:11:34;;;;;;;13.47;12.27;;;2.30;99.90;;;2.99;87.29;98772.00;5227633;28;20194;-63
2021/10/11 04:14:07;;;;;;;13.50;12.20;;;2.30;99.90;;;2.97;85.99;98767.53;5223282;28;20290;-61
2021/10/11 04:16:40;;;;;;;13.30;11.93;;;2.30;99.90;;;2.90;86.30;98763.50;5227299;28;20193;-60
2021/10/11 04:19:13;;;;;;;14.53;13.07;;;2.20;99.90;;;2.85;85.39;98769.72;5221660;28;20214;-63
2021/10/11 04:21:46;;;;;;;13.87;12.47;;;2.10;99.90;;;2.82;85.84;98759.31;5224344;28;20193;-63
2021/10/11 04:24:20;;;;;;;14.27;12.90;;;2.10;99.90;;;2.79;85.87;98757.38;5219832;28;20222;-64
2021/10/11 04:26:53;;;;;;;15.60;14.10;;;2.10;99.90;;;2.77;86.75;98748.75;5218125;28;20304;-64
2021/10/11 04:29:26;;;;;;;13.77;12.43;;;2.20;99.90;;;2.83;86.93;98753.50;5223975;28;20213;-63
2021/10/11 04:31:59;;;;;;;14.80;12.90;;;2.10;99.90;;;2.78;86.78;98754.72;5219794;28;20201;-64
2021/10/11 04:34:32;;;;;;;14.23;12.83;;;2.00;99.90;;;2.71;86.29;98748.13;5219919;28;20194;-62
2021/10/11 04:37:05;;;;;;;15.13;13.60;;;2.00;99.90;;;2.67;87.15;98751.97;5218248;28;20200;-63
2021/10/11 04:39:39;;;;;;;15.20;13.83;;;2.00;99.90;;;2.77;87.07;98763.00;5224648;28;20319;-64
2021/10/11 04:42:12;;;;;;;15.07;13.57;;;2.10;99.90;;;2.84;87.56;98765.41;5224473;28;20198;-62
2021/10/11 04:44:45;;;;;;;14.73;13.23;;;2.20;99.90;;;2.84;87.54;98765.41;5222457;28;20224;-63
2021/10/11 04:47:18;;;;;;;14.83;13.33;;;2.20;99.90;;;2.89;86.93;98761.69;5228710;28;20238;-64
2021/10/11 04:49:51;;;;;;;16.07;14.47;;;2.20;99.90;;;2.90;87.03;98778.66;5228019;28;20230;-63
2021/10/11 04:52:25;;;;;;;15.00;13.60;;;2.20;99.90;;;2.92;87.16;98772.16;5231635;28;20197;-63
2021/10/11 04:54:59;;;;;;;15.13;13.57;;;2.20;99.90;;;2.90;86.24;98776.13;5222615;28;20200;-63
2021/10/11 04:57:32;;;;;;;15.77;14.27;;;2.20;99.90;;;2.90;86.45;98777.03;5223526;28;20205;-64
2021/10/11 05:00:08;;;;;;;15.57;13.47;;;2.20;99.90;;;2.90;87.04;98782.06;5210732;28;20218;-61
2021/10/11 05:02:41;;;;;;;15.87;14.27;;;2.20;99.90;;;2.93;86.70;98781.50;5217101;28;20220;-63
2021/10/11 05:05:14;;;;;;;15.07;13.47;;;2.20;99.90;;;2.96;85.80;98786.84;5209204;28;20250;-63
2021/10/11 05:07:47;;;;;;;16.43;14.73;;;2.20;99.90;;;3.02;85.42;98789.09;5208800;28;20293;-63
2021/10/11 05:10:22;;;;;;;15.47;14.07;;;2.20;99.90;;;2.98;86.04;98787.03;5208071;28;20256;-64
2021/10/11 05:12:55;;;;;;;16.80;14.97;;;2.20;99.90;;;2.97;84.94;98791.16;5221550;28;20206;-62
2021/10/11 05:15:28;;;;;;;16.27;14.60;;;2.10;99.90;;;2.97;84.60;98790.25;5207414;28;20285;-63
2021/10/11 05:18:01;;;;;;;15.53;14.03;;;2.10;99.90;;;2.92;85.04;98794.88;5217786;28;20207;-63
2021/10/11 05:20:36;;;;;;;15.53;14.03;;;2.10;99.90;;;2.99;84.91;98787.16;5224573;28;20217;-64
2021/10/11 05:23:09;;;;;;;16.40;14.73;;;2.10;99.90;;;2.96;84.29;98781.81;5225719;28;20216;-63
2021/10/11 05:25:43;;;;;;;17.30;15.60;;;2.10;99.90;;;2.83;84.31;98787.25;5225850;28;20217;-63
2021/10/11 05:28:16;;;;;;;15.47;13.97;;;2.00;99.90;;;2.80;83.90;98786.03;5228968;28;20207;-63
2021/10/11 05:30:49;;;;;;;14.33;13.03;;;1.90;99.90;;;2.76;84.87;98782.31;5223814;28;20215;-63
2021/10/11 05:33:23;;;;;;;13.93;12.43;;;2.00;99.90;;;2.79;85.25;98791.81;5228938;28;20204;-64
2021/10/11 05:35:56;;;;;;;13.93;12.60;;;2.00;99.90;;;2.74;85.56;98792.97;5220035;28;20204;-62
2021/10/11 05:38:29;;;;;;;14.80;13.40;;;2.00;99.90;;;2.74;84.87;98798.03;5222487;28;20308;-64
2021/10/11 05:41:03;;;;;;;14.83;13.17;;;2.00;99.90;;;2.71;84.69;98799.47;5224137;28;20296;-64
2021/10/11 05:43:36;;;;;;;14.00;12.60;;;1.90;99.90;;;2.63;83.91;98800.34;5223379;28;20681;-63
2021/10/11 05:46:09;;;;;;;13.63;12.33;;;1.80;99.90;;;2.62;85.23;98793.50;5220960;28;20225;-63
2021/10/11 05:48:42;;;;;;;15.40;13.80;;;1.80;99.90;;;2.58;84.71;98791.41;5227610;28;21310;-63
2021/10/11 05:51:15;;;;;;;13.63;12.27;;;1.80;99.90;;;2.63;85.75;98795.31;5221545;28;20672;-63
2021/10/11 05:53:48;;;;;;;19.60;14.47;;;1.80;99.90;;;2.74;85.17;98810.63;5228671;28;20203;-63
2021/10/11 05:56:23;;;;;;;17.97;14.50;;;1.90;99.90;;;2.82;85.00;98827.47;5223599;28;20198;-63
2021/10/11 05:58:56;;;;;;;19.03;14.17;;;2.00;99.90;;;2.82;85.70;98820.78;5224572;28;20215;-63
2021/10/11 06:01:29;;;;;;;18.57;14.43;;;2.10;99.90;;;2.99;85.38;98829.19;5225888;28;20292;-63
2021/10/11 06:04:02;;;;;;;17.47;15.07;;;2.20;99.90;;;3.07;84.08;98821.66;5223040;28;20212;-62
2021/10/11 06:06:35;;;;;;;16.10;14.40;;;2.20;99.90;;;3.17;83.32;98829.41;5218318;28;20229;-62
2021/10/11 06:09:08;;;;;;;17.63;15.83;;;2.20;99.90;;;3.20;84.40;98833.00;5228063;28;20228;-62
2021/10/11 06:11:43;;;;;;;15.33;13.73;;;2.30;99.90;;;3.14;84.79;98829.09;5224727;28;20208;-64
2021/10/11 06:14:17;;;;;;;15.37;13.87;;;2.30;99.90;;;3.21;84.62;98829.75;5218254;28;20203;-63
2021/10/11 06:16:50;;;;;;;14.97;13.50;;;2.40;99.90;;;3.17;82.86;98824.34;5211548;28;20291;-63
2021/10/11 06:19:23;;;;;;;16.07;14.53;;;2.30;99.90;;;3.30;82.23;98835.72;5212045;28;20224;-63
2021/10/11 06:21:56;;;;;;;14.23;12.90;;;2.40;99.90;;;3.48;82.91;98834.13;5220399;28;20292;-63
2021/10/11 06:24:29;;;;;;;16.27;14.77;;;2.50;99.90;;;3.68;83.47;98837.00;5218754;28;20649;-62
2021/10/11 06:27:04;;;;;;;15.30;13.80;;;2.80;99.90;;;4.03;82.33;98845.56;5213123;28;20203;-63
2021/10/11 06:29:37;;;;;;;16.40;14.80;;;3.00;99.90;;;4.33;81.45;98841.69;5219438;28;20312;-63
2021/10/11 06:32:12;;;;;;;17.93;16.23;;;3.20;99.90;;;4.49;79.30;98823.78;5213172;28;20296;-62
2021/10/11 06:34:45;;;;;;;17.30;15.70;;;3.30;99.90;;;4.63;78.85;98836.13;5207935;28;20283;-63
2021/10/11 06:37:18;;;;;;;15.10;13.70;;;3.60;99.90;;;4.74;78.43;98839.69;5216883;28;20226;-63
2021/10/11 06:39:51;;;;;;;14.40;13.00;;;3.70;99.90;;;5.09;78.24;98834.53;5210752;28;20217;-62
2021/10/11 06:42:25;;;;;;;14.47;12.97;;;4.00;99.90;;;5.29;77.91;98849.94;5225039;28;20210;-63
2021/10/11 06:44:58;;;;;;;14.13;12.80;;;4.30;99.90;;;5.48;77.29;98856.75;5215172;28;20204;-63
2021/10/11 06:47:36;;;;;;;15.43;13.30;;;4.40;99.90;;;5.48;77.04;98844.97;5217584;28;20193;-63
2021/10/11 06:50:10;;;;;;;14.60;13.10;;;4.50;99.90;;;5.52;76.45;98856.25;5222171;28;20229;-63
2021/10/11 06:52:43;;;;;;;15.87;14.33;;;4.50;99.90;;;5.55;75.42;98859.09;5227440;28;20652;-63
2021/10/11 06:55:16;;;;;;;14.20;12.83;;;4.40;99.90;;;5.63;74.64;98848.91;5224976;28;20216;-63
2021/10/11 06:57:50;;;;;;;15.40;14.03;;;4.50;99.90;;;5.49;74.83;98844.19;5222952;28;20284;-63
2021/10/11 07:00:23;;;;;;;14.50;13.20;;;4.50;99.90;;;5.58;75.04;98850.16;5222076;28;20310;-63
2021/10/11 07:02:56;;;;;;;15.10;13.50;;;4.40;99.90;;;5.73;74.44;98840.50;5222313;28;20237;-62
2021/10/11 07:05:30;;;;;;;15.87;14.27;;;4.60;99.90;;;5.95;74.85;98839.94;5224024;28;20228;-64
2021/10/11 07:08:09;;;;;;;14.23;12.83;;;4.90;99.90;;;6.04;74.73;98833.19;5230593;28;20200;-64
2021/10/11 07:10:43;;;;;;;14.93;13.53;;;5.00;99.90;;;6.19;74.11;98838.75;5216394;28;20216;-63
2021/10/11 07:13:17;;;;;;;14.50;13.20;;;5.10;99.90;;;6.35;73.50;98835.91;5226005;28;20205;-64
2021/10/11 07:15:50;;;;;;;14.43;13.03;;;5.30;99.90;;;6.48;73.49;98838.78;5216991;28;20204;-63
2021/10/11 07:18:23;;;;;;;15.13;13.53;;;5.40;99.90;;;6.65;74.20;98841.16;5220405;28;20494;-64
2021/10/11 07:20:57;;;;;;;15.37;13.87;;;5.70;99.90;;;6.83;73.69;98839.34;5220101;28;20221;-63
2021/10/11 07:23:30;;;;;;;15.60;14.10;;;6.00;99.90;;;6.96;74.60;98846.41;5219263;28;20209;-63
2021/10/11 07:26:08;;;;;;;16.07;14.47;;;6.10;99.90;;;7.26;74.32;98852.31;5215829;28;20724;-63
2021/10/11 07:28:42;;;;;;;14.90;13.50;;;6.40;99.90;;;7.35;73.53;98859.09;5221499;28;20291;-63
2021/10/11 07:31:15;;;;;;;15.80;14.27;;;6.40;99.90;;;7.48;72.97;98858.50;5221853;28;20294;-60
2021/10/11 07:33:48;;;;;;;15.30;13.87;;;6.50;99.90;;;7.56;73.22;98859.16;5214635;28;20285;-63
2021/10/11 07:36:21;;;;;;;14.83;13.47;;;6.60;99.90;;;7.67;73.43;98859.28;5216035;28;20200;-63
2021/10/11 07:38:54;;;;;;;15.10;13.70;;;6.80;99.90;;;7.81;71.92;98857.00;5220743;28;20580;-62
2021/10/11 07:41:27;;;;;;;15.93;14.53;;;6.90;99.90;;;7.96;71.59;98858.28;5217191;28;20296;-63
2021/10/11 07:44:02;;;;;;;15.80;14.03;;;7.10;99.90;;;8.07;71.33;98857.53;5228257;28;20292;-64
2021/10/11 07:46:35;;;;;;;15.17;13.67;;;7.10;99.90;;;8.18;70.96;98854.97;5219467;28;20688;-63
2021/10/11 07:49:25;;;;;;;17.83;15.97;;;7.20;99.90;;;8.48;70.73;98847.31;5210715;28;20818;-63
2021/10/11 07:51:58;;;;;;;16.90;15.30;;;7.40;99.90;;;8.57;69.62;98853.16;5217210;28;20312;-63
2021/10/11 07:54:31;;;;;;;16.60;15.10;;;7.50;99.90;;;8.81;68.83;98850.78;5225713;28;20240;-63
2021/10/11 07:57:04;;;;;;;16.37;14.77;;;7.70;99.90;;;8.98;67.94;98858.09;5220862;28;20275;-63
2021/10/11 07:59:39;;;;;;;14.63;13.23;;;7.80;99.90;;;9.07;67.88;98857.97;5226070;28;20574;-62
2021/10/11 08:02:12;;;;;;;16.57;15.10;;;7.90;99.90;;;9.18;67.17;98856.25;5226932;28;20735;-62
2021/10/11 08:04:45;;;;;;;15.87;14.37;;;8.10;99.90;;;9.27;67.20;98858.63;5226266;28;20201;-63
2021/10/11 08:07:18;;;;;;;16.53;14.87;;;8.20;99.90;;;9.42;67.24;98863.28;5223780;28;20295;-62
2021/10/11 08:09:51;;;;;;;17.03;15.27;;;8.40;99.90;;;9.66;67.33;98869.38;5227245;28;20311;-64
2021/10/11 08:12:24;;;;;;;16.83;15.13;;;8.60;99.90;;;9.92;67.23;98865.38;5224319;28;20205;-64
2021/10/11 08:14:58;;;;;;;15.87;14.27;;;9.00;99.90;;;10.19;65.66;98866.56;5225444;28;20629;-63
2021/10/11 08:17:32;;;;;;;16.40;14.80;;;9.20;99.90;;;10.35;64.85;98859.28;5222400;28;20288;-64
2021/10/11 08:20:06;;;;;;;15.63;14.13;;;9.30;99.90;;;10.42;65.39;98854.63;5227278;28;20311;-64
2021/10/11 08:22:39;;;;;;;17.20;15.53;;;9.40;99.90;;;10.51;65.64;98848.53;5227681;28;20599;-62
2021/10/11 08:25:13;;;;;;;18.33;16.43;;;9.50;99.90;;;10.62;65.91;98839.09;5226596;28;20200;-64
2021/10/11 08:27:46;;;;;;;16.73;15.23;;;9.50;99.90;;;10.70;66.17;98839.63;5232118;28;20720;-64
2021/10/11 08:30:21;;;;;;;17.07;15.27;;;9.70;99.90;;;10.81;64.91;98847.28;5226468;28;20295;-64
2021/10/11 08:32:54;;;;;;;17.50;15.80;;;9.70;99.90;;;10.76;65.41;98850.31;5224570;28;20292;-62
2021/10/11 08:35:28;;;;;;;17.63;15.77;;;9.70;99.90;;;10.89;65.21;98846.97;5224738;28;20199;-63
2021/10/11 08:38:01;;;;;;;19.30;17.33;;;9.80;99.90;;;10.95;65.02;98852.50;5232746;28;20677;-64
2021/10/11 08:40:34;;;;;;;18.63;16.80;;;9.90;99.90;;;11.01;64.86;98850.38;5219035;28;20788;-63
2021/10/11 08:43:08;;;;;;;17.55;15.95;;;10.10;99.90;;;11.13;65.34;98843.59;5224642;28;20205;-64
2021/10/11 08:45:46;;;;;;;20.98;18.50;;;10.20;99.90;;;11.37;64.63;98853.78;5226598;28;20221;-62
2021/10/11 08:48:19;;;;;;;22.02;19.65;;;10.30;99.90;;;11.59;64.39;98849.38;5226429;28;20714;-63
2021/10/11 08:50:52;;;;;;;19.13;17.17;;;10.60;99.90;;;11.62;65.10;98841.91;5224251;28;20762;-64
2021/10/11 08:53:26;;;;;;;18.98;16.98;;;10.80;99.90;;;11.90;64.48;98829.34;5222218;28;20296;-63
2021/10/11 08:55:59;;;;;;;18.55;16.73;;;10.90;99.90;;;12.07;64.92;98829.56;5226317;28;20292;-64
2021/10/11 08:58:43;;;;;;;20.15;18.05;;;11.20;99.90;;;12.29;63.36;98834.44;5223731;28;20296;-64
2021/10/11 09:01:21;;;;;;;18.70;16.63;;;11.40;99.90;;;12.38;62.08;98827.34;5220011;28;20223;-62
2021/10/11 09:03:55;;;;;;;19.05;17.05;;;11.40;99.90;;;12.44;62.60;98825.19;5222105;28;20208;-64
2021/10/11 09:06:28;;;;;;;19.92;16.73;;;11.50;99.90;;;12.48;62.18;98837.44;5226432;28;20232;-62
2021/10/11 09:09:11;;;;;;;18.00;15.90;;;11.60;99.90;;;12.60;62.52;98827.94;5218426;28;20227;-64
2021/10/11 09:11:46;;;;;;;17.13;15.40;;;11.70;99.90;;;12.63;62.48;98828.16;5236506;28;20197;-64
2021/10/11 09:14:21;;;;;;;18.23;16.35;;;11.60;99.90;;;12.82;61.68;98829.34;5226123;28;20287;-64
2021/10/11 09:17:04;;;;;;;18.13;16.42;;;11.70;99.90;;;12.87;61.50;98827.06;5225175;28;20641;-64
2021/10/11 09:19:46;;;;;;;17.55;15.75;;;11.70;99.90;;;12.89;61.23;98831.50;5226035;28;20224;-64
2021/10/11 09:22:33;;;;;;;17.95;16.08;;;11.70;99.90;;;12.93;61.11;98824.88;5222299;28;20300;-64
2021/10/11 09:25:07;;;;;;;17.13;15.43;;;12.00;99.90;;;12.65;62.38;98825.69;5221453;28;20216;-64
2021/10/11 09:27:51;;;;;;;17.73;15.50;;;11.80;99.90;;;12.91;62.10;98818.78;5225745;28;20223;-64
2021/10/11 09:30:27;;;;;;;17.65;15.90;;;12.00;99.90;;;13.21;60.29;98818.13;5218511;28;20296;-63
2021/10/11 09:33:09;;;;;;;17.40;15.73;;;12.20;99.90;;;13.27;59.35;98810.81;5218041;28;20198;-64
2021/10/11 09:35:45;;;;;;;17.38;15.73;;;12.30;99.90;;;13.23;59.96;98813.09;5225735;28;20212;-64
2021/10/11 09:38:21;;;;;;;17.83;15.98;;;12.30;99.90;;;13.32;60.47;98810.22;5225280;28;20207;-64
2021/10/11 09:40:57;;;;;;;17.65;15.85;;;12.30;99.90;;;13.36;59.76;98810.50;5225781;28;20754;-63
2021/10/11 09:43:32;;;;;;;18.67;16.77;;;12.20;99.90;;;13.33;59.90;98812.00;5219922;28;20284;-64
2021/10/11 09:46:13;;;;;;;17.20;15.55;;;12.30;99.90;;;13.57;59.98;98818.66;5225314;28;20239;-64
2021/10/11 09:48:53;;;;;;;17.73;15.77;;;12.50;99.90;;;13.60;59.85;98825.66;5218235;28;20217;-62
2021/10/11 09:51:26;;;;;;;16.88;15.05;;;12.60;99.90;;;13.73;59.47;98817.88;5217928;28;20712;-62
2021/10/11 09:53:59;;;;;;;16.70;15.02;;;12.80;99.90;;;13.76;59.30;98818.06;5225016;28;20296;-63
2021/10/11 09:56:33;;;;;;;17.20;15.50;;;12.80;99.90;;;13.73;58.91;98805.03;5225186;28;20289;-63
2021/10/11 09:59:10;;;;;;;17.52;15.68;;;12.80;99.90;;;13.84;59.90;98806.56;5224889;28;20304;-63
2021/10/11 10:01:46;;;;;;;17.42;15.75;;;12.80;99.90;;;13.85;59.27;98803.22;5216730;28;20200;-62
2021/10/11 10:04:24;;;;;;;17.35;15.63;;;12.90;99.90;;;14.06;58.30;98797.56;5220090;28;20248;-62
2021/10/11 10:07:01;;;;;;;15.20;13.77;;;12.90;99.90;;;14.01;58.21;98787.00;5224811;28;20382;-63
2021/10/11 10:09:40;;;;;;;16.23;14.63;;;12.90;99.90;;;14.06;58.18;98787.28;5224758;28;20223;-62
2021/10/11 10:12:14;;;;;;;16.33;14.82;;;13.00;99.90;;;14.19;58.17;98789.72;5224499;28;20197;-62
2021/10/11 10:14:59;;;;;;;16.45;14.85;;;13.20;99.90;;;14.19;58.82;98784.59;5222109;28;20209;-62
2021/10/11 10:17:34;;;;;;;16.65;14.95;;;13.20;99.90;;;14.32;57.82;98784.50;5230710;28;20192;-63
2021/10/11 10:20:13;;;;;;;16.27;14.57;;;13.20;99.90;;;14.19;58.49;98780.38;5222936;28;20225;-62
2021/10/11 10:22:51;;;;;;;16.45;14.63;;;13.20;99.90;;;14.15;58.02;98777.50;5222835;28;20568;-61
2021/10/11 10:25:25;;;;;;;16.45;14.88;;;13.20;99.90;;;14.30;58.24;98777.50;5223699;28;20232;-62
2021/10/11 10:28:11;;;;;;;15.85;14.30;;;13.40;99.90;;;14.36;58.23;98778.72;5222200;28;20217;-62
2021/10/11 10:30:57;;;;;;;16.60;15.00;;;13.50;99.90;;;14.46;57.71;98779.28;5227895;28;20216;-62
2021/10/11 10:33:36;;;;;;;15.93;14.30;;;13.40;99.90;;;14.48;56.88;98780.22;5214588;28;20609;-62
2021/10/11 10:36:23;;;;;;;16.33;14.68;;;13.40;99.90;;;14.51;57.36;98773.59;5213887;28;20720;-62
2021/10/11 10:38:59;;;;;;;16.48;14.80;;;13.50;99.90;;;14.73;57.60;98774.81;5222234;28;20229;-62
2021/10/11 10:41:33;;;;;;;15.70;14.10;;;13.70;99.90;;;14.69;57.10;98778.91;5215508;28;20295;-62
2021/10/11 10:44:19;;;;;;;16.05;14.35;;;13.70;99.90;;;14.67;57.12;98770.19;5215583;28;20197;-62